North Conway, New Hampshire
Current Conditions -  °F | °C
As of 6:54 PM on Tuesday 25 Nov 2014 (Local Time) from KIZG Reporting Station
Clear Clear  
Wind Chill: 42°   Ceiling: Unl
Heat Index: 46°   Visibility: 10mi
Dew Point: 23°   Wind: 7mph
Humidity: 40%   Direction: 260°W
Pressure: 29.95"   Gusts: NA
Location:  44.05°N, 71.13°W
Report Text: KIZG 252354Z AUTO 26006KT 10SM CLR 08/M05 A2995 RMK AO2 SLP144 T00781050 10133 20078 51038
Loading
Personal Weather Stations






























Interactive Weather Map New forecast layout! Learn more

10-Day Weather Forecast

Advertisements
Track Severe Weather on mobile